sensor_id;sensor_type;location;lat;lon;timestamp;P1;durP1;ratioP1;P2;durP2;ratioP2
46845;SDS011;33947;46.804;134.252;2024-01-30T00:01:17;168.85;;;56.53;;
46845;SDS011;33947;46.804;134.252;2024-01-30T00:04:24;149.05;;;49.35;;
46845;SDS011;33947;46.804;134.252;2024-01-30T00:07:33;177.48;;;71.45;;
46845;SDS011;33947;46.804;134.252;2024-01-30T00:10:41;131.75;;;55.65;;
46845;SDS011;33947;46.804;134.252;2024-01-30T00:13:48;226.38;;;76.80;;
46845;SDS011;33947;46.804;134.252;2024-01-30T00:16:55;211.15;;;75.95;;
46845;SDS011;33947;46.804;134.252;2024-01-30T00:20:03;135.90;;;56.55;;
46845;SDS011;33947;46.804;134.252;2024-01-30T00:23:16;118.15;;;44.42;;
46845;SDS011;33947;46.804;134.252;2024-01-30T00:26:23;180.43;;;64.40;;
46845;SDS011;33947;46.804;134.252;2024-01-30T00:29:30;96.90;;;40.63;;
46845;SDS011;33947;46.804;134.252;2024-01-30T00:32:37;194.48;;;70.68;;
46845;SDS011;33947;46.804;134.252;2024-01-30T00:35:44;159.48;;;62.65;;
46845;SDS011;33947;46.804;134.252;2024-01-30T00:38:54;241.27;;;73.65;;
46845;SDS011;33947;46.804;134.252;2024-01-30T00:42:00;129.38;;;45.33;;
46845;SDS011;33947;46.804;134.252;2024-01-30T00:45:11;216.75;;;72.25;;
46845;SDS011;33947;46.804;134.252;2024-01-30T00:48:18;184.30;;;59.67;;
46845;SDS011;33947;46.804;134.252;2024-01-30T00:51:24;90.68;;;39.75;;
46845;SDS011;33947;46.804;134.252;2024-01-30T00:54:36;133.38;;;41.60;;
46845;SDS011;33947;46.804;134.252;2024-01-30T00:57:43;209.77;;;74.97;;
46845;SDS011;33947;46.804;134.252;2024-01-30T01:00:51;87.85;;;32.75;;
46845;SDS011;33947;46.804;134.252;2024-01-30T01:03:58;176.13;;;56.33;;
46845;SDS011;33947;46.804;134.252;2024-01-30T01:07:06;152.93;;;49.70;;
46845;SDS011;33947;46.804;134.252;2024-01-30T01:10:16;74.70;;;28.13;;
46845;SDS011;33947;46.804;134.252;2024-01-30T01:13:23;102.63;;;40.15;;
46845;SDS011;33947;46.804;134.252;2024-01-30T01:16:31;111.38;;;38.53;;
46845;SDS011;33947;46.804;134.252;2024-01-30T01:19:39;121.50;;;46.70;;
46845;SDS011;33947;46.804;134.252;2024-01-30T01:22:46;125.60;;;49.28;;
46845;SDS011;33947;46.804;134.252;2024-01-30T01:25:55;130.93;;;49.58;;
46845;SDS011;33947;46.804;134.252;2024-01-30T01:29:04;151.43;;;55.53;;
46845;SDS011;33947;46.804;134.252;2024-01-30T01:32:15;124.10;;;48.88;;
46845;SDS011;33947;46.804;134.252;2024-01-30T01:35:22;105.05;;;38.15;;
46845;SDS011;33947;46.804;134.252;2024-01-30T01:38:30;211.77;;;63.47;;
46845;SDS011;33947;46.804;134.252;2024-01-30T01:41:45;257.48;;;78.05;;
46845;SDS011;33947;46.804;134.252;2024-01-30T01:44:53;208.32;;;66.95;;
46845;SDS011;33947;46.804;134.252;2024-01-30T01:48:01;201.20;;;64.50;;
46845;SDS011;33947;46.804;134.252;2024-01-30T01:51:08;182.25;;;59.65;;
46845;SDS011;33947;46.804;134.252;2024-01-30T01:54:20;132.13;;;44.53;;
46845;SDS011;33947;46.804;134.252;2024-01-30T01:57:30;117.75;;;40.08;;
46845;SDS011;33947;46.804;134.252;2024-01-30T02:00:37;189.60;;;59.78;;
46845;SDS011;33947;46.804;134.252;2024-01-30T02:03:45;196.35;;;61.72;;
46845;SDS011;33947;46.804;134.252;2024-01-30T02:06:53;180.82;;;59.72;;
46845;SDS011;33947;46.804;134.252;2024-01-30T02:10:01;213.10;;;68.72;;
46845;SDS011;33947;46.804;134.252;2024-01-30T02:13:11;221.57;;;73.22;;
46845;SDS011;33947;46.804;134.252;2024-01-30T02:16:18;228.43;;;75.68;;
46845;SDS011;33947;46.804;134.252;2024-01-30T02:19:25;161.50;;;55.08;;
46845;SDS011;33947;46.804;134.252;2024-01-30T02:22:35;160.65;;;52.80;;
46845;SDS011;33947;46.804;134.252;2024-01-30T02:25:43;174.20;;;58.53;;
46845;SDS011;33947;46.804;134.252;2024-01-30T02:28:50;188.95;;;65.80;;
46845;SDS011;33947;46.804;134.252;2024-01-30T02:31:57;150.65;;;50.53;;
46845;SDS011;33947;46.804;134.252;2024-01-30T02:35:04;123.97;;;40.47;;
46845;SDS011;33947;46.804;134.252;2024-01-30T02:38:13;130.05;;;45.13;;
46845;SDS011;33947;46.804;134.252;2024-01-30T02:41:21;143.85;;;52.83;;
46845;SDS011;33947;46.804;134.252;2024-01-30T02:44:29;135.80;;;45.35;;
46845;SDS011;33947;46.804;134.252;2024-01-30T02:47:36;161.85;;;58.50;;
46845;SDS011;33947;46.804;134.252;2024-01-30T02:50:43;161.32;;;56.83;;
46845;SDS011;33947;46.804;134.252;2024-01-30T02:53:52;194.35;;;62.83;;
46845;SDS011;33947;46.804;134.252;2024-01-30T02:56:59;77.75;;;27.38;;
46845;SDS011;33947;46.804;134.252;2024-01-30T03:00:08;131.52;;;42.97;;
46845;SDS011;33947;46.804;134.252;2024-01-30T03:03:16;52.53;;;20.08;;
46845;SDS011;33947;46.804;134.252;2024-01-30T03:06:23;116.30;;;38.85;;
46845;SDS011;33947;46.804;134.252;2024-01-30T03:09:33;136.10;;;47.15;;
46845;SDS011;33947;46.804;134.252;2024-01-30T03:12:41;131.50;;;45.15;;
46845;SDS011;33947;46.804;134.252;2024-01-30T03:15:49;178.40;;;60.60;;
46845;SDS011;33947;46.804;134.252;2024-01-30T03:18:55;163.63;;;60.92;;
46845;SDS011;33947;46.804;134.252;2024-01-30T03:22:05;148.63;;;56.15;;
46845;SDS011;33947;46.804;134.252;2024-01-30T03:25:13;159.02;;;58.38;;
46845;SDS011;33947;46.804;134.252;2024-01-30T03:28:21;166.57;;;62.05;;
46845;SDS011;33947;46.804;134.252;2024-01-30T03:31:27;143.30;;;46.42;;
46845;SDS011;33947;46.804;134.252;2024-01-30T03:34:34;104.85;;;39.55;;
46845;SDS011;33947;46.804;134.252;2024-01-30T03:37:42;102.20;;;40.70;;
46845;SDS011;33947;46.804;134.252;2024-01-30T03:40:50;110.82;;;41.35;;
46845;SDS011;33947;46.804;134.252;2024-01-30T03:43:57;105.28;;;38.40;;
46845;SDS011;33947;46.804;134.252;2024-01-30T03:47:05;117.47;;;39.72;;
46845;SDS011;33947;46.804;134.252;2024-01-30T03:50:12;121.45;;;42.75;;
46845;SDS011;33947;46.804;134.252;2024-01-30T03:53:19;87.25;;;30.27;;
46845;SDS011;33947;46.804;134.252;2024-01-30T03:56:27;97.18;;;36.72;;
46845;SDS011;33947;46.804;134.252;2024-01-30T03:59:34;153.48;;;48.17;;
46845;SDS011;33947;46.804;134.252;2024-01-30T04:02:42;115.35;;;39.05;;
46845;SDS011;33947;46.804;134.252;2024-01-30T04:05:51;105.43;;;39.30;;
46845;SDS011;33947;46.804;134.252;2024-01-30T04:08:58;109.38;;;37.92;;
46845;SDS011;33947;46.804;134.252;2024-01-30T04:12:09;117.55;;;43.50;;
46845;SDS011;33947;46.804;134.252;2024-01-30T04:15:16;127.18;;;48.53;;
46845;SDS011;33947;46.804;134.252;2024-01-30T04:18:22;114.45;;;41.47;;
46845;SDS011;33947;46.804;134.252;2024-01-30T04:21:29;114.60;;;44.50;;
46845;SDS011;33947;46.804;134.252;2024-01-30T04:24:36;97.63;;;38.53;;
46845;SDS011;33947;46.804;134.252;2024-01-30T04:27:48;105.63;;;40.58;;
46845;SDS011;33947;46.804;134.252;2024-01-30T04:30:56;118.03;;;44.72;;
46845;SDS011;33947;46.804;134.252;2024-01-30T04:34:03;131.30;;;45.75;;
46845;SDS011;33947;46.804;134.252;2024-01-30T04:37:11;100.60;;;37.80;;
46845;SDS011;33947;46.804;134.252;2024-01-30T04:40:18;83.22;;;34.88;;
46845;SDS011;33947;46.804;134.252;2024-01-30T04:43:27;97.97;;;37.67;;
46845;SDS011;33947;46.804;134.252;2024-01-30T04:46:34;129.32;;;50.70;;
46845;SDS011;33947;46.804;134.252;2024-01-30T04:49:41;125.70;;;49.97;;
46845;SDS011;33947;46.804;134.252;2024-01-30T04:52:52;134.98;;;50.65;;
46845;SDS011;33947;46.804;134.252;2024-01-30T04:55:59;77.30;;;29.58;;
46845;SDS011;33947;46.804;134.252;2024-01-30T04:59:07;104.93;;;33.88;;
46845;SDS011;33947;46.804;134.252;2024-01-30T05:02:19;107.65;;;36.78;;
46845;SDS011;33947;46.804;134.252;2024-01-30T05:05:29;120.88;;;42.13;;
46845;SDS011;33947;46.804;134.252;2024-01-30T05:08:36;134.75;;;47.65;;
46845;SDS011;33947;46.804;134.252;2024-01-30T05:11:43;123.15;;;45.50;;
46845;SDS011;33947;46.804;134.252;2024-01-30T05:14:55;111.97;;;41.53;;
46845;SDS011;33947;46.804;134.252;2024-01-30T05:18:04;64.78;;;22.20;;
46845;SDS011;33947;46.804;134.252;2024-01-30T05:21:17;98.35;;;36.38;;
46845;SDS011;33947;46.804;134.252;2024-01-30T05:24:25;119.20;;;42.78;;
46845;SDS011;33947;46.804;134.252;2024-01-30T05:27:33;120.18;;;46.17;;
46845;SDS011;33947;46.804;134.252;2024-01-30T05:30:43;130.73;;;42.92;;
46845;SDS011;33947;46.804;134.252;2024-01-30T05:33:50;101.63;;;37.80;;
46845;SDS011;33947;46.804;134.252;2024-01-30T05:36:57;120.72;;;43.58;;
46845;SDS011;33947;46.804;134.252;2024-01-30T05:40:05;116.88;;;46.35;;
46845;SDS011;33947;46.804;134.252;2024-01-30T05:43:13;63.25;;;23.45;;
46845;SDS011;33947;46.804;134.252;2024-01-30T05:46:22;106.68;;;37.38;;
46845;SDS011;33947;46.804;134.252;2024-01-30T05:49:31;95.22;;;35.42;;
46845;SDS011;33947;46.804;134.252;2024-01-30T05:52:41;105.50;;;37.35;;
46845;SDS011;33947;46.804;134.252;2024-01-30T05:55:50;102.57;;;36.53;;
46845;SDS011;33947;46.804;134.252;2024-01-30T05:58:58;92.97;;;34.30;;
46845;SDS011;33947;46.804;134.252;2024-01-30T06:02:06;108.03;;;40.60;;
46845;SDS011;33947;46.804;134.252;2024-01-30T06:05:13;102.20;;;35.15;;
46845;SDS011;33947;46.804;134.252;2024-01-30T06:08:21;104.72;;;43.33;;
46845;SDS011;33947;46.804;134.252;2024-01-30T06:11:28;101.20;;;37.28;;
46845;SDS011;33947;46.804;134.252;2024-01-30T06:14:35;109.10;;;40.17;;
46845;SDS011;33947;46.804;134.252;2024-01-30T06:17:45;90.38;;;37.28;;
46845;SDS011;33947;46.804;134.252;2024-01-30T06:20:52;119.95;;;42.85;;
46845;SDS011;33947;46.804;134.252;2024-01-30T06:23:59;124.22;;;39.47;;
46845;SDS011;33947;46.804;134.252;2024-01-30T06:27:06;117.32;;;42.25;;
46845;SDS011;33947;46.804;134.252;2024-01-30T06:30:14;122.93;;;41.53;;
46845;SDS011;33947;46.804;134.252;2024-01-30T06:33:34;77.93;;;31.60;;
46845;SDS011;33947;46.804;134.252;2024-01-30T06:36:41;107.15;;;36.78;;
46845;SDS011;33947;46.804;134.252;2024-01-30T06:39:49;110.93;;;45.92;;
46845;SDS011;33947;46.804;134.252;2024-01-30T06:42:57;109.70;;;38.83;;
46845;SDS011;33947;46.804;134.252;2024-01-30T06:46:04;96.93;;;39.78;;
46845;SDS011;33947;46.804;134.252;2024-01-30T06:49:12;92.78;;;32.78;;
46845;SDS011;33947;46.804;134.252;2024-01-30T06:52:19;80.13;;;30.48;;
46845;SDS011;33947;46.804;134.252;2024-01-30T06:55:26;83.45;;;30.45;;
46845;SDS011;33947;46.804;134.252;2024-01-30T06:58:34;99.22;;;34.90;;
46845;SDS011;33947;46.804;134.252;2024-01-30T07:01:41;94.93;;;32.75;;
46845;SDS011;33947;46.804;134.252;2024-01-30T07:04:50;147.85;;;44.35;;
46845;SDS011;33947;46.804;134.252;2024-01-30T07:07:57;204.30;;;50.00;;
46845;SDS011;33947;46.804;134.252;2024-01-30T07:11:05;124.85;;;36.47;;
46845;SDS011;33947;46.804;134.252;2024-01-30T07:14:12;206.05;;;57.53;;
46845;SDS011;33947;46.804;134.252;2024-01-30T07:17:18;136.48;;;42.75;;
46845;SDS011;33947;46.804;134.252;2024-01-30T07:20:28;101.85;;;38.15;;
46845;SDS011;33947;46.804;134.252;2024-01-30T07:23:39;95.68;;;33.30;;
46845;SDS011;33947;46.804;134.252;2024-01-30T07:26:46;72.40;;;28.63;;
46845;SDS011;33947;46.804;134.252;2024-01-30T07:29:53;78.35;;;29.95;;
46845;SDS011;33947;46.804;134.252;2024-01-30T07:33:00;82.43;;;31.88;;
46845;SDS011;33947;46.804;134.252;2024-01-30T07:36:09;83.53;;;27.25;;
46845;SDS011;33947;46.804;134.252;2024-01-30T07:39:16;87.00;;;31.75;;
46845;SDS011;33947;46.804;134.252;2024-01-30T07:42:23;97.43;;;34.90;;
46845;SDS011;33947;46.804;134.252;2024-01-30T07:45:31;177.65;;;46.50;;
46845;SDS011;33947;46.804;134.252;2024-01-30T07:48:37;128.02;;;40.33;;
46845;SDS011;33947;46.804;134.252;2024-01-30T07:51:46;133.05;;;42.20;;
46845;SDS011;33947;46.804;134.252;2024-01-30T07:54:54;126.18;;;37.15;;
46845;SDS011;33947;46.804;134.252;2024-01-30T07:58:02;119.28;;;38.50;;
46845;SDS011;33947;46.804;134.252;2024-01-30T08:01:10;116.55;;;37.78;;
46845;SDS011;33947;46.804;134.252;2024-01-30T08:04:17;101.53;;;33.67;;
46845;SDS011;33947;46.804;134.252;2024-01-30T08:07:26;178.45;;;46.53;;
46845;SDS011;33947;46.804;134.252;2024-01-30T08:10:34;170.07;;;47.42;;
46845;SDS011;33947;46.804;134.252;2024-01-30T08:13:42;218.65;;;60.08;;
46845;SDS011;33947;46.804;134.252;2024-01-30T08:16:48;173.40;;;51.85;;
46845;SDS011;33947;46.804;134.252;2024-01-30T08:19:56;160.60;;;50.47;;
46845;SDS011;33947;46.804;134.252;2024-01-30T08:23:05;146.75;;;43.17;;
46845;SDS011;33947;46.804;134.252;2024-01-30T08:26:13;143.57;;;43.58;;
46845;SDS011;33947;46.804;134.252;2024-01-30T08:29:20;141.95;;;41.75;;
46845;SDS011;33947;46.804;134.252;2024-01-30T08:32:28;143.30;;;41.00;;
46845;SDS011;33947;46.804;134.252;2024-01-30T08:35:36;177.15;;;47.25;;
46845;SDS011;33947;46.804;134.252;2024-01-30T08:38:44;167.80;;;43.97;;
46845;SDS011;33947;46.804;134.252;2024-01-30T08:41:53;278.17;;;70.47;;
46845;SDS011;33947;46.804;134.252;2024-01-30T08:45:03;276.08;;;68.07;;
46845;SDS011;33947;46.804;134.252;2024-01-30T08:48:12;388.63;;;93.32;;
46845;SDS011;33947;46.804;134.252;2024-01-30T08:51:20;292.00;;;77.50;;
46845;SDS011;33947;46.804;134.252;2024-01-30T08:54:29;331.23;;;88.50;;
46845;SDS011;33947;46.804;134.252;2024-01-30T08:57:39;310.38;;;84.38;;
46845;SDS011;33947;46.804;134.252;2024-01-30T09:00:47;290.80;;;84.32;;
46845;SDS011;33947;46.804;134.252;2024-01-30T09:03:55;307.48;;;86.72;;
46845;SDS011;33947;46.804;134.252;2024-01-30T09:07:03;254.40;;;78.65;;
46845;SDS011;33947;46.804;134.252;2024-01-30T09:10:18;244.38;;;74.07;;
46845;SDS011;33947;46.804;134.252;2024-01-30T09:13:28;242.13;;;72.70;;
46845;SDS011;33947;46.804;134.252;2024-01-30T09:16:35;275.92;;;72.97;;
46845;SDS011;33947;46.804;134.252;2024-01-30T09:19:42;217.75;;;68.78;;
46845;SDS011;33947;46.804;134.252;2024-01-30T09:22:50;247.43;;;67.55;;
46845;SDS011;33947;46.804;134.252;2024-01-30T09:26:00;177.88;;;54.92;;
46845;SDS011;33947;46.804;134.252;2024-01-30T09:29:08;174.70;;;57.40;;
46845;SDS011;33947;46.804;134.252;2024-01-30T09:32:15;135.95;;;47.90;;
46845;SDS011;33947;46.804;134.252;2024-01-30T09:35:23;118.75;;;39.92;;
46845;SDS011;33947;46.804;134.252;2024-01-30T09:38:30;77.20;;;31.20;;
46845;SDS011;33947;46.804;134.252;2024-01-30T09:41:40;101.50;;;37.88;;
46845;SDS011;33947;46.804;134.252;2024-01-30T09:44:51;108.68;;;39.75;;
46845;SDS011;33947;46.804;134.252;2024-01-30T09:48:01;83.60;;;32.35;;
46845;SDS011;33947;46.804;134.252;2024-01-30T09:51:10;105.50;;;34.80;;
46845;SDS011;33947;46.804;134.252;2024-01-30T09:54:19;116.55;;;41.72;;
46845;SDS011;33947;46.804;134.252;2024-01-30T09:57:29;154.80;;;44.33;;
46845;SDS011;33947;46.804;134.252;2024-01-30T10:00:36;139.63;;;46.10;;
46845;SDS011;33947;46.804;134.252;2024-01-30T10:03:43;116.80;;;39.35;;
46845;SDS011;33947;46.804;134.252;2024-01-30T10:06:50;133.38;;;42.20;;
46845;SDS011;33947;46.804;134.252;2024-01-30T10:09:58;142.77;;;44.20;;
46845;SDS011;33947;46.804;134.252;2024-01-30T10:13:07;216.98;;;62.75;;
46845;SDS011;33947;46.804;134.252;2024-01-30T10:16:14;131.43;;;47.53;;
46845;SDS011;33947;46.804;134.252;2024-01-30T10:19:23;154.25;;;49.30;;
46845;SDS011;33947;46.804;134.252;2024-01-30T10:22:31;173.93;;;55.45;;
46845;SDS011;33947;46.804;134.252;2024-01-30T10:25:40;161.52;;;50.88;;
46845;SDS011;33947;46.804;134.252;2024-01-30T10:28:50;244.50;;;76.80;;
46845;SDS011;33947;46.804;134.252;2024-01-30T10:31:58;306.42;;;82.32;;
46845;SDS011;33947;46.804;134.252;2024-01-30T10:35:06;241.32;;;67.47;;
46845;SDS011;33947;46.804;134.252;2024-01-30T10:38:13;234.43;;;71.38;;
46845;SDS011;33947;46.804;134.252;2024-01-30T10:41:23;130.13;;;48.60;;
46845;SDS011;33947;46.804;134.252;2024-01-30T10:44:36;118.93;;;43.25;;
46845;SDS011;33947;46.804;134.252;2024-01-30T10:47:50;143.95;;;49.55;;
46845;SDS011;33947;46.804;134.252;2024-01-30T10:51:02;126.82;;;44.75;;
46845;SDS011;33947;46.804;134.252;2024-01-30T10:54:10;160.90;;;54.65;;
46845;SDS011;33947;46.804;134.252;2024-01-30T10:57:22;170.48;;;51.78;;
46845;SDS011;33947;46.804;134.252;2024-01-30T11:00:33;149.98;;;49.70;;
46845;SDS011;33947;46.804;134.252;2024-01-30T11:03:43;201.48;;;65.68;;
46845;SDS011;33947;46.804;134.252;2024-01-30T11:06:51;155.75;;;52.95;;
46845;SDS011;33947;46.804;134.252;2024-01-30T11:10:02;118.80;;;43.00;;
46845;SDS011;33947;46.804;134.252;2024-01-30T11:13:13;104.93;;;40.28;;
46845;SDS011;33947;46.804;134.252;2024-01-30T11:16:22;125.07;;;42.45;;
46845;SDS011;33947;46.804;134.252;2024-01-30T11:19:30;119.47;;;43.47;;
46845;SDS011;33947;46.804;134.252;2024-01-30T11:22:40;113.38;;;43.90;;
46845;SDS011;33947;46.804;134.252;2024-01-30T11:25:52;120.63;;;40.70;;
46845;SDS011;33947;46.804;134.252;2024-01-30T11:29:02;145.48;;;49.78;;
46845;SDS011;33947;46.804;134.252;2024-01-30T11:32:16;138.70;;;46.50;;
46845;SDS011;33947;46.804;134.252;2024-01-30T11:35:34;166.90;;;59.28;;
46845;SDS011;33947;46.804;134.252;2024-01-30T11:38:43;146.02;;;49.80;;
46845;SDS011;33947;46.804;134.252;2024-01-30T11:41:56;120.65;;;48.30;;
46845;SDS011;33947;46.804;134.252;2024-01-30T11:45:05;146.83;;;47.57;;
46845;SDS011;33947;46.804;134.252;2024-01-30T11:48:14;94.70;;;35.50;;
46845;SDS011;33947;46.804;134.252;2024-01-30T11:51:23;84.63;;;37.30;;
46845;SDS011;33947;46.804;134.252;2024-01-30T11:54:31;95.68;;;39.03;;
46845;SDS011;33947;46.804;134.252;2024-01-30T11:57:41;89.00;;;35.42;;
46845;SDS011;33947;46.804;134.252;2024-01-30T12:00:54;102.00;;;38.60;;
46845;SDS011;33947;46.804;134.252;2024-01-30T12:04:04;97.63;;;39.88;;
46845;SDS011;33947;46.804;134.252;2024-01-30T12:07:17;121.32;;;40.42;;
46845;SDS011;33947;46.804;134.252;2024-01-30T12:10:24;92.57;;;33.28;;
46845;SDS011;33947;46.804;134.252;2024-01-30T12:13:32;95.22;;;37.40;;
46845;SDS011;33947;46.804;134.252;2024-01-30T12:16:40;97.88;;;38.50;;
46845;SDS011;33947;46.804;134.252;2024-01-30T12:19:50;96.28;;;32.50;;
46845;SDS011;33947;46.804;134.252;2024-01-30T12:23:08;91.13;;;35.28;;
46845;SDS011;33947;46.804;134.252;2024-01-30T12:26:16;77.03;;;29.58;;
46845;SDS011;33947;46.804;134.252;2024-01-30T12:29:23;71.60;;;31.20;;
46845;SDS011;33947;46.804;134.252;2024-01-30T12:32:35;136.00;;;51.88;;
46845;SDS011;33947;46.804;134.252;2024-01-30T12:35:46;102.00;;;41.55;;
46845;SDS011;33947;46.804;134.252;2024-01-30T12:39:05;138.43;;;49.38;;
46845;SDS011;33947;46.804;134.252;2024-01-30T12:42:13;139.00;;;46.83;;
46845;SDS011;33947;46.804;134.252;2024-01-30T12:45:21;141.77;;;48.47;;
46845;SDS011;33947;46.804;134.252;2024-01-30T12:48:28;254.35;;;74.85;;
46845;SDS011;33947;46.804;134.252;2024-01-30T12:51:38;259.60;;;83.40;;
46845;SDS011;33947;46.804;134.252;2024-01-30T12:54:45;149.23;;;53.15;;
46845;SDS011;33947;46.804;134.252;2024-01-30T12:57:52;137.77;;;52.63;;
46845;SDS011;33947;46.804;134.252;2024-01-30T13:01:00;106.10;;;39.08;;
46845;SDS011;33947;46.804;134.252;2024-01-30T13:04:08;152.82;;;52.53;;
46845;SDS011;33947;46.804;134.252;2024-01-30T13:07:18;307.27;;;86.85;;
46845;SDS011;33947;46.804;134.252;2024-01-30T13:10:25;194.25;;;65.80;;
46845;SDS011;33947;46.804;134.252;2024-01-30T13:13:32;147.90;;;41.88;;
46845;SDS011;33947;46.804;134.252;2024-01-30T13:16:39;128.60;;;47.45;;
46845;SDS011;33947;46.804;134.252;2024-01-30T13:19:48;166.25;;;45.63;;
46845;SDS011;33947;46.804;134.252;2024-01-30T13:22:57;152.73;;;52.28;;
46845;SDS011;33947;46.804;134.252;2024-01-30T13:26:04;190.52;;;53.60;;
46845;SDS011;33947;46.804;134.252;2024-01-30T13:29:11;244.60;;;68.90;;
46845;SDS011;33947;46.804;134.252;2024-01-30T13:32:19;159.77;;;53.53;;
46845;SDS011;33947;46.804;134.252;2024-01-30T13:35:26;148.05;;;48.33;;
46845;SDS011;33947;46.804;134.252;2024-01-30T13:38:35;128.88;;;45.28;;
46845;SDS011;33947;46.804;134.252;2024-01-30T13:41:43;150.57;;;49.17;;
46845;SDS011;33947;46.804;134.252;2024-01-30T13:44:50;188.82;;;58.22;;
46845;SDS011;33947;46.804;134.252;2024-01-30T13:47:58;230.50;;;61.67;;
46845;SDS011;33947;46.804;134.252;2024-01-30T13:51:05;112.80;;;40.63;;
46845;SDS011;33947;46.804;134.252;2024-01-30T13:54:13;134.52;;;44.53;;
46845;SDS011;33947;46.804;134.252;2024-01-30T13:57:23;111.50;;;40.58;;
46845;SDS011;33947;46.804;134.252;2024-01-30T14:00:30;163.38;;;46.50;;
46845;SDS011;33947;46.804;134.252;2024-01-30T14:03:37;128.65;;;40.33;;
46845;SDS011;33947;46.804;134.252;2024-01-30T14:06:44;360.60;;;99.35;;
46845;SDS011;33947;46.804;134.252;2024-01-30T14:10:04;324.65;;;90.00;;
46845;SDS011;33947;46.804;134.252;2024-01-30T14:13:16;251.70;;;75.72;;
46845;SDS011;33947;46.804;134.252;2024-01-30T14:16:23;158.43;;;58.10;;
46845;SDS011;33947;46.804;134.252;2024-01-30T14:19:30;349.77;;;91.88;;
46845;SDS011;33947;46.804;134.252;2024-01-30T14:22:37;405.25;;;108.35;;
46845;SDS011;33947;46.804;134.252;2024-01-30T14:25:46;325.98;;;100.53;;
46845;SDS011;33947;46.804;134.252;2024-01-30T14:28:55;337.98;;;90.55;;
46845;SDS011;33947;46.804;134.252;2024-01-30T14:32:01;203.45;;;59.28;;
46845;SDS011;33947;46.804;134.252;2024-01-30T14:35:09;78.25;;;29.35;;
46845;SDS011;33947;46.804;134.252;2024-01-30T14:38:16;146.10;;;46.33;;
46845;SDS011;33947;46.804;134.252;2024-01-30T14:41:28;152.57;;;53.28;;
46845;SDS011;33947;46.804;134.252;2024-01-30T14:44:35;109.90;;;37.88;;
46845;SDS011;33947;46.804;134.252;2024-01-30T14:47:42;129.82;;;46.58;;
46845;SDS011;33947;46.804;134.252;2024-01-30T14:50:50;113.45;;;35.97;;
46845;SDS011;33947;46.804;134.252;2024-01-30T14:53:57;92.20;;;35.72;;
46845;SDS011;33947;46.804;134.252;2024-01-30T14:57:06;111.43;;;43.45;;
46845;SDS011;33947;46.804;134.252;2024-01-30T15:00:14;161.13;;;49.25;;
46845;SDS011;33947;46.804;134.252;2024-01-30T15:03:22;199.57;;;60.83;;
46845;SDS011;33947;46.804;134.252;2024-01-30T15:06:31;220.73;;;68.03;;
46845;SDS011;33947;46.804;134.252;2024-01-30T15:09:39;203.85;;;59.53;;
46845;SDS011;33947;46.804;134.252;2024-01-30T15:12:48;185.25;;;62.30;;
46845;SDS011;33947;46.804;134.252;2024-01-30T15:15:55;205.30;;;67.05;;
46845;SDS011;33947;46.804;134.252;2024-01-30T15:19:04;207.27;;;71.15;;
46845;SDS011;33947;46.804;134.252;2024-01-30T15:22:14;206.52;;;62.00;;
46845;SDS011;33947;46.804;134.252;2024-01-30T15:25:21;222.02;;;72.07;;
46845;SDS011;33947;46.804;134.252;2024-01-30T15:28:38;238.75;;;72.93;;
46845;SDS011;33947;46.804;134.252;2024-01-30T15:31:45;185.45;;;63.65;;
46845;SDS011;33947;46.804;134.252;2024-01-30T15:34:53;255.00;;;81.57;;
46845;SDS011;33947;46.804;134.252;2024-01-30T15:38:00;319.73;;;93.03;;
46845;SDS011;33947;46.804;134.252;2024-01-30T15:41:07;236.88;;;84.45;;
46845;SDS011;33947;46.804;134.252;2024-01-30T15:44:20;193.45;;;64.72;;
46845;SDS011;33947;46.804;134.252;2024-01-30T15:47:27;165.48;;;51.22;;
46845;SDS011;33947;46.804;134.252;2024-01-30T15:50:37;270.48;;;85.03;;
46845;SDS011;33947;46.804;134.252;2024-01-30T15:53:45;184.70;;;61.63;;
46845;SDS011;33947;46.804;134.252;2024-01-30T15:56:53;117.60;;;45.25;;
46845;SDS011;33947;46.804;134.252;2024-01-30T16:00:02;115.40;;;43.53;;
46845;SDS011;33947;46.804;134.252;2024-01-30T16:03:14;155.45;;;47.15;;
46845;SDS011;33947;46.804;134.252;2024-01-30T16:06:21;125.22;;;47.63;;
46845;SDS011;33947;46.804;134.252;2024-01-30T16:09:29;177.30;;;60.42;;
46845;SDS011;33947;46.804;134.252;2024-01-30T16:12:37;180.40;;;62.33;;
46845;SDS011;33947;46.804;134.252;2024-01-30T16:15:52;176.02;;;53.50;;
46845;SDS011;33947;46.804;134.252;2024-01-30T16:19:01;152.35;;;55.53;;
46845;SDS011;33947;46.804;134.252;2024-01-30T16:22:33;189.05;;;60.33;;
46845;SDS011;33947;46.804;134.252;2024-01-30T16:25:41;195.30;;;68.00;;
46845;SDS011;33947;46.804;134.252;2024-01-30T16:28:51;213.18;;;63.72;;
46845;SDS011;33947;46.804;134.252;2024-01-30T16:32:24;150.38;;;58.13;;
46845;SDS011;33947;46.804;134.252;2024-01-30T16:35:36;130.32;;;44.63;;
46845;SDS011;33947;46.804;134.252;2024-01-30T16:42:00;77.93;;;31.33;;
46845;SDS011;33947;46.804;134.252;2024-01-30T16:45:09;103.53;;;40.17;;
46845;SDS011;33947;46.804;134.252;2024-01-30T16:48:43;88.85;;;31.00;;
46845;SDS011;33947;46.804;134.252;2024-01-30T16:52:14;79.45;;;30.52;;
46845;SDS011;33947;46.804;134.252;2024-01-30T16:55:45;70.05;;;26.77;;
46845;SDS011;33947;46.804;134.252;2024-01-30T16:59:15;75.68;;;27.67;;
46845;SDS011;33947;46.804;134.252;2024-01-30T17:02:46;104.30;;;35.17;;
46845;SDS011;33947;46.804;134.252;2024-01-30T17:06:20;111.35;;;32.33;;
46845;SDS011;33947;46.804;134.252;2024-01-30T17:09:29;148.27;;;45.53;;
46845;SDS011;33947;46.804;134.252;2024-01-30T17:13:08;103.82;;;36.92;;
46845;SDS011;33947;46.804;134.252;2024-01-30T17:16:20;103.25;;;37.17;;
46845;SDS011;33947;46.804;134.252;2024-01-30T17:19:35;94.07;;;37.63;;
46845;SDS011;33947;46.804;134.252;2024-01-30T17:22:49;119.25;;;43.60;;
46845;SDS011;33947;46.804;134.252;2024-01-30T17:26:00;117.25;;;37.63;;
46845;SDS011;33947;46.804;134.252;2024-01-30T17:29:34;88.43;;;32.65;;
46845;SDS011;33947;46.804;134.252;2024-01-30T17:32:46;98.20;;;34.55;;
46845;SDS011;33947;46.804;134.252;2024-01-30T17:36:17;112.72;;;42.28;;
46845;SDS011;33947;46.804;134.252;2024-01-30T17:39:58;111.75;;;36.17;;
46845;SDS011;33947;46.804;134.252;2024-01-30T17:43:10;123.70;;;37.70;;
46845;SDS011;33947;46.804;134.252;2024-01-30T17:46:41;92.07;;;34.60;;